createdAt,value
2023-02-22T00:02:37.796Z,8.55
2023-02-22T00:05:47.479Z,9.03
2023-02-22T00:08:52.453Z,8.82
2023-02-22T00:11:58.938Z,8.48
2023-02-22T00:15:02.200Z,11.77
2023-02-22T00:18:07.227Z,9.80
2023-02-22T00:21:12.227Z,9.43
2023-02-22T00:24:23.533Z,8.48
2023-02-22T00:27:26.999Z,10.05
2023-02-22T00:30:32.155Z,7.47
2023-02-22T00:33:36.699Z,8.07
2023-02-22T00:36:46.327Z,8.23
2023-02-22T00:39:51.215Z,10.25
2023-02-22T00:42:54.671Z,8.68
2023-02-22T00:45:58.635Z,9.15
2023-02-22T00:49:02.083Z,7.68
2023-02-22T00:52:05.833Z,9.18
2023-02-22T00:55:15.052Z,8.65
2023-02-22T00:58:18.784Z,7.87
2023-02-22T01:01:24.738Z,8.52
2023-02-22T01:04:28.132Z,8.75
2023-02-22T01:07:31.749Z,7.37
2023-02-22T01:10:38.569Z,8.30
2023-02-22T01:13:42.069Z,9.00
2023-02-22T01:16:45.329Z,7.93
2023-02-22T01:19:50.976Z,6.60
2023-02-22T01:22:56.518Z,7.20
2023-02-22T01:25:59.926Z,7.12
2023-02-22T01:29:05.601Z,9.27
2023-02-22T01:32:09.576Z,9.27
2023-02-22T01:35:18.773Z,6.85
2023-02-22T01:38:22.289Z,9.02
2023-02-22T01:41:25.471Z,8.73
2023-02-22T01:44:38.527Z,8.23
2023-02-22T01:47:42.556Z,7.25
2023-02-22T01:50:57.452Z,8.00
2023-02-22T01:54:06.859Z,7.53
2023-02-22T01:57:22.302Z,8.27
2023-02-22T02:00:30.786Z,7.12
2023-02-22T02:03:39.586Z,8.02
2023-02-22T02:06:44.370Z,6.87
2023-02-22T02:10:00.387Z,7.20
2023-02-22T02:13:04.706Z,7.72
2023-02-22T02:16:08.230Z,8.77
2023-02-22T02:19:39.648Z,9.07
2023-02-22T02:23:10.742Z,8.50
2023-02-22T02:27:05.436Z,8.07
2023-02-22T02:30:12.106Z,7.95
2023-02-22T02:33:30.084Z,8.95
2023-02-22T02:37:12.565Z,8.27
2023-02-22T02:40:26.402Z,8.30
2023-02-22T02:43:38.233Z,7.68
2023-02-22T02:47:01.233Z,11.33
2023-02-22T02:50:18.840Z,7.47
2023-02-22T02:53:27.554Z,9.43
2023-02-22T02:56:31.267Z,8.57
2023-02-22T02:59:40.312Z,7.90
2023-02-22T03:03:16.640Z,10.70
2023-02-22T03:06:50.471Z,8.23
2023-02-22T03:10:21.844Z,10.80
2023-02-22T03:13:40.623Z,8.13
2023-02-22T03:17:09.028Z,9.60
2023-02-22T03:20:22.595Z,8.65
2023-02-22T03:23:34.441Z,9.60
2023-02-22T03:26:46.630Z,9.30
2023-02-22T03:29:56.572Z,9.02
2023-02-22T03:33:09.618Z,13.25
2023-02-22T03:36:29.791Z,9.93
2023-02-22T03:39:37.460Z,9.48
2023-02-22T03:42:47.806Z,11.85
2023-02-22T03:45:51.455Z,9.52
2023-02-22T03:49:05.471Z,10.67
2023-02-22T03:52:09.754Z,17.62
2023-02-22T03:55:17.818Z,13.05
2023-02-22T03:58:23.032Z,12.53
2023-02-22T04:01:27.014Z,12.25
2023-02-22T04:04:30.652Z,15.30
2023-02-22T04:07:33.977Z,15.80
2023-02-22T04:10:38.478Z,13.35
2023-02-22T04:13:41.746Z,13.27
2023-02-22T04:16:45.177Z,14.48
2023-02-22T04:19:50.022Z,13.13
2023-02-22T04:22:55.940Z,13.40
2023-02-22T04:25:59.283Z,14.73
2023-02-22T04:29:04.375Z,16.90
2023-02-22T04:32:08.588Z,15.90
2023-02-22T04:35:12.434Z,18.12
2023-02-22T04:38:16.645Z,16.85
2023-02-22T04:41:23.897Z,17.87
2023-02-22T04:44:28.828Z,18.35
2023-02-22T04:47:35.004Z,17.00
2023-02-22T04:50:40.675Z,14.93
2023-02-22T04:53:45.661Z,18.42
2023-02-22T04:56:50.114Z,18.30
2023-02-22T04:59:54.252Z,18.77
2023-02-22T05:02:58.716Z,17.85
2023-02-22T05:06:02.956Z,20.37
2023-02-22T05:09:06.512Z,19.20
2023-02-22T05:12:10.315Z,17.20
2023-02-22T05:15:20.148Z,19.98
2023-02-22T05:18:23.854Z,20.88
2023-02-22T05:21:27.048Z,21.23
2023-02-22T05:24:30.433Z,19.62
2023-02-22T05:27:33.553Z,20.65
2023-02-22T05:30:39.826Z,23.23
2023-02-22T05:33:43.325Z,29.23
2023-02-22T05:36:46.865Z,26.95
2023-02-22T05:39:51.124Z,26.67
2023-02-22T05:42:55.360Z,27.33
2023-02-22T05:45:58.530Z,30.90
2023-02-22T05:49:02.107Z,24.63
2023-02-22T05:52:05.569Z,24.27
2023-02-22T05:55:11.052Z,28.67
2023-02-22T05:58:15.281Z,28.77
2023-02-22T06:01:19.668Z,26.13
2023-02-22T06:04:23.685Z,27.95
2023-02-22T06:07:27.400Z,34.38
2023-02-22T06:10:31.333Z,28.35
2023-02-22T06:13:36.722Z,38.63
2023-02-22T06:16:41.470Z,35.60
2023-02-22T06:19:44.702Z,38.15
2023-02-22T06:22:49.956Z,36.70
2023-02-22T06:25:53.409Z,34.30
2023-02-22T06:28:56.847Z,33.38
2023-02-22T06:32:00.210Z,36.40
2023-02-22T06:35:03.714Z,58.45
2023-02-22T06:38:06.926Z,48.08
2023-02-22T06:41:10.393Z,35.50
2023-02-22T06:44:15.214Z,35.00
2023-02-22T06:47:18.908Z,27.87
2023-02-22T06:50:30.742Z,25.45
2023-02-22T06:53:35.199Z,29.07
2023-02-22T06:56:38.526Z,24.02
2023-02-22T06:59:42.153Z,30.95
2023-02-22T07:02:48.476Z,34.95
2023-02-22T07:05:52.464Z,32.85
2023-02-22T07:08:55.741Z,28.62
2023-02-22T07:11:59.655Z,24.90
2023-02-22T07:15:02.792Z,20.73
2023-02-22T07:18:07.559Z,18.08
2023-02-22T07:21:10.889Z,20.02
2023-02-22T07:24:15.072Z,16.90
2023-02-22T07:27:18.483Z,23.42
2023-02-22T07:30:25.642Z,20.47
2023-02-22T07:33:29.025Z,15.40
2023-02-22T07:36:32.694Z,17.02
2023-02-22T07:39:38.163Z,13.90
2023-02-22T07:43:02.733Z,13.63
2023-02-22T07:46:06.144Z,15.32
2023-02-22T07:49:09.796Z,14.00
2023-02-22T07:52:13.191Z,13.30
2023-02-22T07:55:18.643Z,14.02
2023-02-22T07:58:24.510Z,14.50
2023-02-22T08:01:28.115Z,11.88
2023-02-22T08:04:32.240Z,13.98
2023-02-22T08:07:35.305Z,12.70
2023-02-22T08:10:39.769Z,12.98
2023-02-22T08:13:43.027Z,13.80
2023-02-22T08:16:46.454Z,13.98
2023-02-22T08:19:49.562Z,13.18
2023-02-22T08:22:53.619Z,12.35
2023-02-22T08:25:56.839Z,11.80
2023-02-22T08:29:00.299Z,12.88
2023-02-22T08:32:03.937Z,11.20
2023-02-22T08:35:07.885Z,12.13
2023-02-22T08:38:26.505Z,11.18
2023-02-22T08:41:30.571Z,12.47
2023-02-22T08:44:34.129Z,11.75
2023-02-22T08:47:37.606Z,11.35
2023-02-22T08:50:41.975Z,12.25
2023-02-22T08:53:45.442Z,12.10
2023-02-22T08:56:49.349Z,12.83
2023-02-22T08:59:53.615Z,10.90
2023-02-22T09:02:56.912Z,17.73
2023-02-22T09:06:00.601Z,14.18
2023-02-22T09:09:04.016Z,11.65
2023-02-22T09:12:07.612Z,10.17
2023-02-22T09:15:12.128Z,9.23
2023-02-22T09:18:18.254Z,11.80
2023-02-22T09:21:22.816Z,11.43
2023-02-22T09:24:28.177Z,11.15
2023-02-22T09:27:32.659Z,12.70
2023-02-22T09:30:36.825Z,8.80
2023-02-22T09:33:41.356Z,9.52
2023-02-22T09:36:47.859Z,10.02
2023-02-22T09:39:51.560Z,8.98
2023-02-22T09:43:17.090Z,10.63
2023-02-22T09:46:30.903Z,9.03
2023-02-22T09:49:39.203Z,7.53
2023-02-22T09:53:05.579Z,10.18
2023-02-22T09:56:17.571Z,11.35
2023-02-22T09:59:27.474Z,10.20
2023-02-22T10:02:38.605Z,9.63
2023-02-22T10:05:49.142Z,9.50
2023-02-22T10:08:56.733Z,10.63
2023-02-22T10:12:12.859Z,10.68
2023-02-22T10:15:46.226Z,9.63
2023-02-22T10:19:33.592Z,10.40
2023-02-22T10:22:37.594Z,9.57
2023-02-22T10:25:42.753Z,14.57
2023-02-22T10:29:04.460Z,10.98
2023-02-22T10:32:17.204Z,10.97
2023-02-22T10:35:25.784Z,8.83
2023-02-22T10:38:34.104Z,11.27
2023-02-22T10:41:41.312Z,11.65
2023-02-22T10:44:44.712Z,9.65
2023-02-22T10:47:49.362Z,12.53
2023-02-22T10:50:57.528Z,9.67
2023-02-22T10:54:14.164Z,10.25
2023-02-22T10:57:33.076Z,10.20
2023-02-22T11:00:39.568Z,13.93
2023-02-22T11:03:43.112Z,10.90
2023-02-22T11:07:06.297Z,11.30
2023-02-22T11:10:10.338Z,9.57
2023-02-22T11:13:25.992Z,8.93
2023-02-22T11:16:43.483Z,10.77
2023-02-22T11:19:49.120Z,12.20
2023-02-22T11:23:01.088Z,10.77
2023-02-22T11:26:09.716Z,13.85
2023-02-22T11:29:36.405Z,9.63
2023-02-22T11:33:01.678Z,11.27
2023-02-22T11:36:09.414Z,13.63
2023-02-22T11:39:34.712Z,11.17
2023-02-22T11:42:39.886Z,9.35
2023-02-22T11:46:03.777Z,9.00
2023-02-22T11:49:13.206Z,9.85
2023-02-22T11:52:19.700Z,10.50
2023-02-22T11:55:41.739Z,13.70
2023-02-22T11:59:18.049Z,10.43
2023-02-22T12:03:03.332Z,32.45
2023-02-22T12:06:08.358Z,13.52
2023-02-22T12:09:58.353Z,13.17
2023-02-22T12:13:18.835Z,8.67
2023-02-22T12:16:59.802Z,9.95
2023-02-22T12:20:24.923Z,9.13
2023-02-22T12:23:56.902Z,12.15
2023-02-22T12:27:09.862Z,12.17
2023-02-22T12:30:23.762Z,8.73
2023-02-22T12:33:31.949Z,10.93
2023-02-22T12:36:51.941Z,11.02
2023-02-22T12:40:13.668Z,9.88
2023-02-22T12:43:41.837Z,12.87
2023-02-22T12:46:50.598Z,8.50
2023-02-22T12:50:23.599Z,12.43
2023-02-22T12:53:37.176Z,9.77
2023-02-22T12:56:48.302Z,9.57
2023-02-22T12:59:56.374Z,10.57
2023-02-22T13:03:04.982Z,11.60
2023-02-22T13:06:31.807Z,11.23
2023-02-22T13:09:50.257Z,9.50
2023-02-22T13:12:53.766Z,9.27
2023-02-22T13:16:08.449Z,12.90
2023-02-22T13:19:37.270Z,12.68
2023-02-22T13:23:08.872Z,12.13
2023-02-22T13:26:32.635Z,10.15
2023-02-22T13:29:42.208Z,9.20
2023-02-22T13:33:04.660Z,11.63
2023-02-22T13:36:29.254Z,19.25
2023-02-22T13:40:00.463Z,17.48
2023-02-22T13:43:09.624Z,14.00
2023-02-22T13:46:50.185Z,10.60
2023-02-22T13:50:24.726Z,13.20
2023-02-22T13:53:37.206Z,10.65
2023-02-22T13:56:49.882Z,10.55
2023-02-22T14:00:15.144Z,13.35
2023-02-22T14:03:24.650Z,9.43
2023-02-22T14:06:38.325Z,12.03
2023-02-22T14:09:50.700Z,14.10
2023-02-22T14:12:54.070Z,15.13
2023-02-22T14:16:00.705Z,10.15
2023-02-22T14:19:09.827Z,11.98
2023-02-22T14:22:29.917Z,11.57
2023-02-22T14:25:40.708Z,11.60
2023-02-22T14:28:50.489Z,13.40
2023-02-22T14:32:11.183Z,11.90
2023-02-22T14:35:44.584Z,10.32
2023-02-22T14:38:40.158Z,16.37
2023-02-22T14:41:51.496Z,13.73
2023-02-22T14:44:54.524Z,12.77
2023-02-22T14:48:25.393Z,14.18
2023-02-22T14:51:43.579Z,13.40
2023-02-22T14:54:59.839Z,12.93
2023-02-22T14:58:25.748Z,13.02
2023-02-22T15:01:49.056Z,14.55
2023-02-22T15:04:57.012Z,25.10
2023-02-22T15:08:03.843Z,14.50
2023-02-22T15:11:21.373Z,18.83
2023-02-22T15:14:26.918Z,16.75
2023-02-22T15:17:30.305Z,15.98
2023-02-22T15:20:38.390Z,17.77
2023-02-22T15:23:49.060Z,12.65
2023-02-22T15:27:02.553Z,19.63
2023-02-22T15:30:20.336Z,14.13
2023-02-22T15:33:31.790Z,14.50
2023-02-22T15:36:35.325Z,12.95
2023-02-22T15:39:44.089Z,12.98
2023-02-22T15:42:48.988Z,18.73
2023-02-22T15:45:52.913Z,16.40
2023-02-22T15:49:15.667Z,15.88
2023-02-22T15:52:24.157Z,16.05
2023-02-22T15:55:29.708Z,17.75
2023-02-22T15:58:34.296Z,22.07
2023-02-22T16:01:46.653Z,20.45
2023-02-22T16:04:59.854Z,17.65
2023-02-22T16:08:03.317Z,19.85
2023-02-22T16:11:15.493Z,13.05
2023-02-22T16:14:40.090Z,12.13
2023-02-22T16:17:55.945Z,12.37
2023-02-22T16:21:05.345Z,12.77
2023-02-22T16:24:26.375Z,15.15
2023-02-22T16:27:31.020Z,22.92
2023-02-22T16:30:37.839Z,22.80
2023-02-22T16:33:43.106Z,17.05
2023-02-22T16:36:51.693Z,22.85
2023-02-22T16:39:56.808Z,19.37
2023-02-22T16:43:12.042Z,20.83
2023-02-22T16:46:16.263Z,20.13
2023-02-22T16:49:21.005Z,21.05
2023-02-22T16:52:25.586Z,21.77
2023-02-22T16:55:30.155Z,20.88
2023-02-22T16:58:37.284Z,22.98
2023-02-22T17:01:42.993Z,23.33
2023-02-22T17:04:50.448Z,19.60
2023-02-22T17:07:54.197Z,20.42
2023-02-22T17:11:01.110Z,39.13
2023-02-22T17:14:05.822Z,17.37
2023-02-22T17:17:14.089Z,19.52
2023-02-22T17:20:32.249Z,15.50
2023-02-22T17:23:36.322Z,22.10
2023-02-22T17:26:42.008Z,20.05
2023-02-22T17:29:45.510Z,20.73
2023-02-22T17:32:51.791Z,24.52
2023-02-22T17:35:57.923Z,23.05
2023-02-22T17:39:03.981Z,23.10
2023-02-22T17:42:11.355Z,23.75
2023-02-22T17:45:17.750Z,28.73
2023-02-22T17:48:25.824Z,29.05
2023-02-22T17:51:31.396Z,47.17
2023-02-22T17:54:36.448Z,55.58
2023-02-22T17:57:44.720Z,35.70
2023-02-22T18:00:51.452Z,41.85
2023-02-22T18:04:01.815Z,36.93
2023-02-22T18:07:07.067Z,29.10
2023-02-22T18:10:13.059Z,36.30
2023-02-22T18:13:24.048Z,38.58
2023-02-22T18:16:29.408Z,61.67
2023-02-22T18:19:39.353Z,54.20
2023-02-22T18:22:46.860Z,38.58
2023-02-22T18:26:09.775Z,36.07
2023-02-22T18:29:17.192Z,31.80
2023-02-22T18:32:23.813Z,31.02
2023-02-22T18:35:32.611Z,31.55
2023-02-22T18:38:43.592Z,36.77
2023-02-22T18:41:52.195Z,33.53
2023-02-22T18:45:01.340Z,41.05
2023-02-22T18:48:08.301Z,48.35
2023-02-22T18:51:16.525Z,35.27
2023-02-22T18:54:22.736Z,36.58
2023-02-22T18:57:31.005Z,36.58
2023-02-22T19:00:36.888Z,28.23
2023-02-22T19:03:42.118Z,28.63
2023-02-22T19:06:50.394Z,31.62
2023-02-22T19:09:57.762Z,30.05
2023-02-22T19:13:05.494Z,32.20
2023-02-22T19:16:11.260Z,32.75
2023-02-22T19:19:22.495Z,33.13
2023-02-22T19:22:33.531Z,34.55
2023-02-22T19:25:41.933Z,35.77
2023-02-22T19:28:48.951Z,26.27
2023-02-22T19:31:53.950Z,29.70
2023-02-22T19:35:07.711Z,25.63
2023-02-22T19:38:14.050Z,29.85
2023-02-22T19:41:23.282Z,27.13
2023-02-22T19:44:34.391Z,29.85
2023-02-22T19:47:40.048Z,34.95
2023-02-22T19:50:52.046Z,30.17
2023-02-22T19:54:03.300Z,27.27
2023-02-22T19:57:11.020Z,27.37
2023-02-22T20:00:25.026Z,35.65
2023-02-22T20:03:36.465Z,28.92
2023-02-22T20:06:43.241Z,33.73
2023-02-22T20:09:50.624Z,33.50
2023-02-22T20:12:56.560Z,23.58
2023-02-22T20:16:02.566Z,23.25
2023-02-22T20:19:10.062Z,30.85
2023-02-22T20:22:16.850Z,27.70
2023-02-22T20:25:23.359Z,24.90
2023-02-22T20:28:29.336Z,32.60
2023-02-22T20:31:34.933Z,27.65
2023-02-22T20:34:41.358Z,29.25
2023-02-22T20:37:48.206Z,30.60
2023-02-22T20:40:58.051Z,24.52
2023-02-22T20:44:07.626Z,28.85
2023-02-22T20:47:13.913Z,26.92
2023-02-22T20:50:19.725Z,22.27
2023-02-22T20:53:25.991Z,25.42
2023-02-22T20:56:32.666Z,24.40
2023-02-22T20:59:49.020Z,24.20
2023-02-22T21:02:54.856Z,27.08
2023-02-22T21:06:00.486Z,21.02
2023-02-22T21:09:10.206Z,21.20
2023-02-22T21:12:21.939Z,25.03
2023-02-22T21:15:28.162Z,24.73
2023-02-22T21:18:34.388Z,25.55
2023-02-22T21:21:43.547Z,25.25
2023-02-22T21:24:50.272Z,28.10
2023-02-22T21:27:54.825Z,24.83
2023-02-22T21:31:09.313Z,31.08
2023-02-22T21:34:17.613Z,25.17
2023-02-22T21:37:22.668Z,29.15
2023-02-22T21:40:28.138Z,27.37
2023-02-22T21:43:33.371Z,26.12
2023-02-22T21:46:37.528Z,23.50
2023-02-22T21:49:41.618Z,23.25
2023-02-22T21:52:47.727Z,25.60
2023-02-22T21:55:53.648Z,26.92
2023-02-22T21:58:59.495Z,21.77
2023-02-22T22:02:03.889Z,28.70
2023-02-22T22:05:07.722Z,28.17
2023-02-22T22:08:19.379Z,20.23
2023-02-22T22:11:25.161Z,26.25
2023-02-22T22:14:28.458Z,26.20
2023-02-22T22:17:32.541Z,24.77
2023-02-22T22:20:39.301Z,23.48
2023-02-22T22:23:46.174Z,24.25
2023-02-22T22:26:56.260Z,23.62
2023-02-22T22:30:01.933Z,22.87
2023-02-22T22:33:12.683Z,26.23
2023-02-22T22:36:18.066Z,23.10
2023-02-22T22:39:21.427Z,22.02
2023-02-22T22:42:25.875Z,19.60
2023-02-22T22:45:29.100Z,23.33
2023-02-22T22:48:36.234Z,20.20
2023-02-22T22:51:41.168Z,22.33
2023-02-22T22:54:44.942Z,24.02
2023-02-22T22:57:48.151Z,25.37
2023-02-22T23:00:57.200Z,21.23
2023-02-22T23:04:03.814Z,18.65
2023-02-22T23:07:07.327Z,20.15
2023-02-22T23:10:12.793Z,25.48
2023-02-22T23:13:16.502Z,21.00
2023-02-22T23:16:20.018Z,22.30
2023-02-22T23:19:23.700Z,21.70
2023-02-22T23:22:28.002Z,22.77
2023-02-22T23:25:33.080Z,27.10
2023-02-22T23:28:38.609Z,20.30
2023-02-22T23:31:42.386Z,21.50
2023-02-22T23:34:49.760Z,24.90
2023-02-22T23:37:53.859Z,20.60
2023-02-22T23:41:04.776Z,19.20
2023-02-22T23:44:17.728Z,22.92
2023-02-22T23:47:21.074Z,24.92
2023-02-22T23:50:29.175Z,23.05
2023-02-22T23:53:32.699Z,21.87
2023-02-22T23:56:39.311Z,25.43
2023-02-22T23:59:43.466Z,21.83
